sensor_id;sensor_type;location;lat;lon;timestamp;P1;durP1;ratioP1;P2;durP2;ratioP2
21251;SDS011;10784;50.578;17.878;2023-03-04T00:01:32;39.13;;;10.95;;
21251;SDS011;10784;50.578;17.878;2023-03-04T00:04:05;39.65;;;10.20;;
21251;SDS011;10784;50.578;17.878;2023-03-04T00:06:37;34.58;;;11.50;;
21251;SDS011;10784;50.578;17.878;2023-03-04T00:09:10;42.38;;;11.75;;
21251;SDS011;10784;50.578;17.878;2023-03-04T00:11:43;33.65;;;11.07;;
21251;SDS011;10784;50.578;17.878;2023-03-04T00:14:16;31.98;;;11.18;;
21251;SDS011;10784;50.578;17.878;2023-03-04T00:16:48;28.67;;;11.18;;
21251;SDS011;10784;50.578;17.878;2023-03-04T00:19:21;34.58;;;12.10;;
21251;SDS011;10784;50.578;17.878;2023-03-04T00:21:54;38.80;;;13.98;;
21251;SDS011;10784;50.578;17.878;2023-03-04T00:24:27;31.60;;;10.13;;
21251;SDS011;10784;50.578;17.878;2023-03-04T00:26:59;33.08;;;11.00;;
21251;SDS011;10784;50.578;17.878;2023-03-04T00:29:32;30.35;;;9.27;;
21251;SDS011;10784;50.578;17.878;2023-03-04T00:32:05;19.60;;;8.82;;
21251;SDS011;10784;50.578;17.878;2023-03-04T00:34:39;27.73;;;11.57;;
21251;SDS011;10784;50.578;17.878;2023-03-04T00:37:14;27.05;;;10.43;;
21251;SDS011;10784;50.578;17.878;2023-03-04T00:39:47;33.08;;;9.65;;
21251;SDS011;10784;50.578;17.878;2023-03-04T00:42:20;31.00;;;8.85;;
21251;SDS011;10784;50.578;17.878;2023-03-04T00:44:53;31.67;;;11.68;;
21251;SDS011;10784;50.578;17.878;2023-03-04T00:47:26;28.63;;;9.55;;
21251;SDS011;10784;50.578;17.878;2023-03-04T00:49:58;32.65;;;12.20;;
21251;SDS011;10784;50.578;17.878;2023-03-04T00:52:31;25.08;;;10.35;;
21251;SDS011;10784;50.578;17.878;2023-03-04T00:55:04;27.70;;;10.40;;
21251;SDS011;10784;50.578;17.878;2023-03-04T00:57:37;20.35;;;8.07;;
21251;SDS011;10784;50.578;17.878;2023-03-04T01:00:11;26.33;;;10.90;;
21251;SDS011;10784;50.578;17.878;2023-03-04T01:02:45;38.08;;;9.93;;
21251;SDS011;10784;50.578;17.878;2023-03-04T01:05:18;28.88;;;9.38;;
21251;SDS011;10784;50.578;17.878;2023-03-04T01:07:51;31.50;;;10.48;;
21251;SDS011;10784;50.578;17.878;2023-03-04T01:10:24;42.38;;;11.00;;
21251;SDS011;10784;50.578;17.878;2023-03-04T01:12:57;30.63;;;9.85;;
21251;SDS011;10784;50.578;17.878;2023-03-04T01:15:31;29.08;;;9.23;;
21251;SDS011;10784;50.578;17.878;2023-03-04T01:18:03;26.30;;;9.43;;
21251;SDS011;10784;50.578;17.878;2023-03-04T01:20:36;24.70;;;10.07;;
21251;SDS011;10784;50.578;17.878;2023-03-04T01:23:09;38.22;;;12.10;;
21251;SDS011;10784;50.578;17.878;2023-03-04T01:25:42;38.22;;;11.40;;
21251;SDS011;10784;50.578;17.878;2023-03-04T01:28:14;34.85;;;12.52;;
21251;SDS011;10784;50.578;17.878;2023-03-04T01:30:47;30.05;;;10.15;;
21251;SDS011;10784;50.578;17.878;2023-03-04T01:33:20;26.17;;;10.27;;
21251;SDS011;10784;50.578;17.878;2023-03-04T01:35:54;26.70;;;10.30;;
21251;SDS011;10784;50.578;17.878;2023-03-04T01:38:26;26.05;;;9.95;;
21251;SDS011;10784;50.578;17.878;2023-03-04T01:40:59;29.55;;;10.23;;
21251;SDS011;10784;50.578;17.878;2023-03-04T01:43:32;24.95;;;9.27;;
21251;SDS011;10784;50.578;17.878;2023-03-04T01:46:08;21.80;;;8.82;;
21251;SDS011;10784;50.578;17.878;2023-03-04T01:48:41;24.13;;;9.90;;
21251;SDS011;10784;50.578;17.878;2023-03-04T01:51:15;27.83;;;9.38;;
21251;SDS011;10784;50.578;17.878;2023-03-04T01:53:48;29.73;;;9.98;;
21251;SDS011;10784;50.578;17.878;2023-03-04T01:56:27;25.90;;;8.57;;
21251;SDS011;10784;50.578;17.878;2023-03-04T01:59:08;24.75;;;10.07;;
21251;SDS011;10784;50.578;17.878;2023-03-04T02:01:42;28.35;;;10.65;;
21251;SDS011;10784;50.578;17.878;2023-03-04T02:04:17;25.05;;;8.75;;
21251;SDS011;10784;50.578;17.878;2023-03-04T02:06:50;29.92;;;11.90;;
21251;SDS011;10784;50.578;17.878;2023-03-04T02:09:23;33.10;;;11.15;;
21251;SDS011;10784;50.578;17.878;2023-03-04T02:11:56;31.63;;;11.73;;
21251;SDS011;10784;50.578;17.878;2023-03-04T02:14:29;34.28;;;11.70;;
21251;SDS011;10784;50.578;17.878;2023-03-04T02:17:02;47.47;;;11.00;;
21251;SDS011;10784;50.578;17.878;2023-03-04T02:22:14;28.27;;;9.68;;
21251;SDS011;10784;50.578;17.878;2023-03-04T02:24:54;23.77;;;8.63;;
21251;SDS011;10784;50.578;17.878;2023-03-04T02:27:28;27.77;;;10.05;;
21251;SDS011;10784;50.578;17.878;2023-03-04T02:30:01;29.55;;;9.98;;
21251;SDS011;10784;50.578;17.878;2023-03-04T02:32:34;27.17;;;11.52;;
21251;SDS011;10784;50.578;17.878;2023-03-04T02:35:08;22.67;;;9.32;;
21251;SDS011;10784;50.578;17.878;2023-03-04T02:37:47;28.42;;;11.63;;
21251;SDS011;10784;50.578;17.878;2023-03-04T02:40:22;28.92;;;10.55;;
21251;SDS011;10784;50.578;17.878;2023-03-04T02:42:57;35.95;;;11.10;;
21251;SDS011;10784;50.578;17.878;2023-03-04T02:48:12;28.80;;;10.40;;
21251;SDS011;10784;50.578;17.878;2023-03-04T02:50:52;26.20;;;9.82;;
21251;SDS011;10784;50.578;17.878;2023-03-04T02:53:25;24.55;;;9.75;;
21251;SDS011;10784;50.578;17.878;2023-03-04T02:55:58;33.13;;;11.20;;
21251;SDS011;10784;50.578;17.878;2023-03-04T02:58:35;27.25;;;9.63;;
21251;SDS011;10784;50.578;17.878;2023-03-04T03:01:09;20.30;;;7.95;;
21251;SDS011;10784;50.578;17.878;2023-03-04T03:03:42;15.40;;;7.55;;
21251;SDS011;10784;50.578;17.878;2023-03-04T03:06:16;26.67;;;9.32;;
21251;SDS011;10784;50.578;17.878;2023-03-04T03:08:49;20.50;;;7.95;;
21251;SDS011;10784;50.578;17.878;2023-03-04T03:11:23;19.70;;;8.82;;
21251;SDS011;10784;50.578;17.878;2023-03-04T03:14:00;22.05;;;8.00;;
21251;SDS011;10784;50.578;17.878;2023-03-04T03:16:34;19.63;;;7.47;;
21251;SDS011;10784;50.578;17.878;2023-03-04T03:19:10;24.85;;;7.63;;
21251;SDS011;10784;50.578;17.878;2023-03-04T03:21:45;20.83;;;7.88;;
21251;SDS011;10784;50.578;17.878;2023-03-04T03:24:26;12.27;;;5.30;;
21251;SDS011;10784;50.578;17.878;2023-03-04T03:27:00;17.38;;;6.15;;
21251;SDS011;10784;50.578;17.878;2023-03-04T03:29:38;19.48;;;6.70;;
21251;SDS011;10784;50.578;17.878;2023-03-04T03:32:12;15.82;;;6.57;;
21251;SDS011;10784;50.578;17.878;2023-03-04T03:34:46;12.23;;;6.05;;
21251;SDS011;10784;50.578;17.878;2023-03-04T03:37:22;14.18;;;5.75;;
21251;SDS011;10784;50.578;17.878;2023-03-04T03:39:55;21.42;;;7.32;;
21251;SDS011;10784;50.578;17.878;2023-03-04T03:42:28;15.85;;;6.95;;
21251;SDS011;10784;50.578;17.878;2023-03-04T03:45:05;15.30;;;6.75;;
21251;SDS011;10784;50.578;17.878;2023-03-04T03:47:38;13.65;;;6.40;;
21251;SDS011;10784;50.578;17.878;2023-03-04T03:50:12;11.20;;;6.05;;
21251;SDS011;10784;50.578;17.878;2023-03-04T03:52:50;14.93;;;6.40;;
21251;SDS011;10784;50.578;17.878;2023-03-04T03:55:23;14.80;;;5.78;;
21251;SDS011;10784;50.578;17.878;2023-03-04T03:57:55;17.75;;;5.47;;
21251;SDS011;10784;50.578;17.878;2023-03-04T04:00:28;11.15;;;5.30;;
21251;SDS011;10784;50.578;17.878;2023-03-04T04:03:01;14.10;;;6.93;;
21251;SDS011;10784;50.578;17.878;2023-03-04T04:05:35;15.23;;;5.72;;
21251;SDS011;10784;50.578;17.878;2023-03-04T04:08:10;13.18;;;6.45;;
21251;SDS011;10784;50.578;17.878;2023-03-04T04:10:53;13.10;;;5.97;;
21251;SDS011;10784;50.578;17.878;2023-03-04T04:13:26;17.65;;;6.25;;
21251;SDS011;10784;50.578;17.878;2023-03-04T04:15:59;7.68;;;4.07;;
21251;SDS011;10784;50.578;17.878;2023-03-04T04:18:31;23.55;;;6.43;;
21251;SDS011;10784;50.578;17.878;2023-03-04T04:21:04;13.25;;;5.75;;
21251;SDS011;10784;50.578;17.878;2023-03-04T04:23:37;12.10;;;6.20;;
21251;SDS011;10784;50.578;17.878;2023-03-04T04:26:10;20.73;;;6.60;;
21251;SDS011;10784;50.578;17.878;2023-03-04T04:28:48;13.55;;;5.30;;
21251;SDS011;10784;50.578;17.878;2023-03-04T04:31:23;21.27;;;6.97;;
21251;SDS011;10784;50.578;17.878;2023-03-04T04:33:55;10.57;;;5.07;;
21251;SDS011;10784;50.578;17.878;2023-03-04T04:36:28;11.40;;;5.50;;
21251;SDS011;10784;50.578;17.878;2023-03-04T04:39:01;14.90;;;5.93;;
21251;SDS011;10784;50.578;17.878;2023-03-04T04:41:38;19.08;;;6.35;;
21251;SDS011;10784;50.578;17.878;2023-03-04T04:44:11;19.00;;;6.10;;
21251;SDS011;10784;50.578;17.878;2023-03-04T04:46:44;13.75;;;5.97;;
21251;SDS011;10784;50.578;17.878;2023-03-04T04:49:17;24.80;;;8.05;;
21251;SDS011;10784;50.578;17.878;2023-03-04T04:51:50;22.75;;;6.57;;
21251;SDS011;10784;50.578;17.878;2023-03-04T04:54:23;17.88;;;7.45;;
21251;SDS011;10784;50.578;17.878;2023-03-04T04:56:56;18.20;;;6.40;;
21251;SDS011;10784;50.578;17.878;2023-03-04T04:59:29;17.98;;;6.15;;
21251;SDS011;10784;50.578;17.878;2023-03-04T05:02:02;21.30;;;6.30;;
21251;SDS011;10784;50.578;17.878;2023-03-04T05:04:34;14.20;;;6.18;;
21251;SDS011;10784;50.578;17.878;2023-03-04T05:07:07;25.30;;;6.38;;
21251;SDS011;10784;50.578;17.878;2023-03-04T05:09:40;24.83;;;6.93;;
21251;SDS011;10784;50.578;17.878;2023-03-04T05:12:13;20.67;;;7.88;;
21251;SDS011;10784;50.578;17.878;2023-03-04T05:14:45;17.88;;;7.28;;
21251;SDS011;10784;50.578;17.878;2023-03-04T05:17:18;19.25;;;7.07;;
21251;SDS011;10784;50.578;17.878;2023-03-04T05:19:51;28.65;;;8.52;;
21251;SDS011;10784;50.578;17.878;2023-03-04T05:22:24;20.65;;;8.07;;
21251;SDS011;10784;50.578;17.878;2023-03-04T05:24:57;19.98;;;7.22;;
21251;SDS011;10784;50.578;17.878;2023-03-04T05:27:30;20.67;;;6.82;;
21251;SDS011;10784;50.578;17.878;2023-03-04T05:30:03;18.02;;;6.10;;
21251;SDS011;10784;50.578;17.878;2023-03-04T05:32:36;22.40;;;7.57;;
21251;SDS011;10784;50.578;17.878;2023-03-04T05:35:09;22.73;;;8.82;;
21251;SDS011;10784;50.578;17.878;2023-03-04T05:37:42;20.27;;;7.78;;
21251;SDS011;10784;50.578;17.878;2023-03-04T05:40:15;17.60;;;6.85;;
21251;SDS011;10784;50.578;17.878;2023-03-04T05:42:47;15.98;;;5.80;;
21251;SDS011;10784;50.578;17.878;2023-03-04T05:45:20;20.05;;;7.57;;
21251;SDS011;10784;50.578;17.878;2023-03-04T05:47:53;22.15;;;6.10;;
21251;SDS011;10784;50.578;17.878;2023-03-04T05:50:26;23.77;;;7.97;;
21251;SDS011;10784;50.578;17.878;2023-03-04T05:52:59;21.13;;;7.03;;
21251;SDS011;10784;50.578;17.878;2023-03-04T05:55:32;23.98;;;7.97;;
21251;SDS011;10784;50.578;17.878;2023-03-04T05:58:05;21.77;;;6.75;;
21251;SDS011;10784;50.578;17.878;2023-03-04T06:00:38;18.17;;;7.50;;
21251;SDS011;10784;50.578;17.878;2023-03-04T06:03:14;21.95;;;7.55;;
21251;SDS011;10784;50.578;17.878;2023-03-04T06:05:47;20.65;;;6.53;;
21251;SDS011;10784;50.578;17.878;2023-03-04T06:08:20;22.58;;;6.80;;
21251;SDS011;10784;50.578;17.878;2023-03-04T06:10:54;18.65;;;7.55;;
21251;SDS011;10784;50.578;17.878;2023-03-04T06:13:27;22.58;;;7.93;;
21251;SDS011;10784;50.578;17.878;2023-03-04T06:16:00;22.90;;;8.25;;
21251;SDS011;10784;50.578;17.878;2023-03-04T06:18:33;20.20;;;9.73;;
21251;SDS011;10784;50.578;17.878;2023-03-04T06:21:06;21.80;;;8.13;;
21251;SDS011;10784;50.578;17.878;2023-03-04T06:23:39;29.73;;;9.57;;
21251;SDS011;10784;50.578;17.878;2023-03-04T06:26:13;21.23;;;7.65;;
21251;SDS011;10784;50.578;17.878;2023-03-04T06:28:47;31.05;;;8.95;;
21251;SDS011;10784;50.578;17.878;2023-03-04T06:31:20;17.95;;;7.70;;
21251;SDS011;10784;50.578;17.878;2023-03-04T06:33:53;22.48;;;8.10;;
21251;SDS011;10784;50.578;17.878;2023-03-04T06:36:25;22.85;;;6.65;;
21251;SDS011;10784;50.578;17.878;2023-03-04T06:39:00;26.23;;;10.52;;
21251;SDS011;10784;50.578;17.878;2023-03-04T06:41:33;19.45;;;7.03;;
21251;SDS011;10784;50.578;17.878;2023-03-04T06:44:07;34.10;;;11.15;;
21251;SDS011;10784;50.578;17.878;2023-03-04T06:46:45;25.60;;;7.53;;
21251;SDS011;10784;50.578;17.878;2023-03-04T06:49:18;26.02;;;8.82;;
21251;SDS011;10784;50.578;17.878;2023-03-04T06:51:50;18.85;;;7.85;;
21251;SDS011;10784;50.578;17.878;2023-03-04T06:54:24;23.90;;;9.35;;
21251;SDS011;10784;50.578;17.878;2023-03-04T06:56:57;18.40;;;8.00;;
21251;SDS011;10784;50.578;17.878;2023-03-04T06:59:30;31.13;;;11.10;;
21251;SDS011;10784;50.578;17.878;2023-03-04T07:02:02;29.25;;;9.38;;
21251;SDS011;10784;50.578;17.878;2023-03-04T07:04:35;31.83;;;12.75;;
21251;SDS011;10784;50.578;17.878;2023-03-04T07:07:09;28.40;;;9.65;;
21251;SDS011;10784;50.578;17.878;2023-03-04T07:09:42;20.02;;;8.52;;
21251;SDS011;10784;50.578;17.878;2023-03-04T07:12:14;25.17;;;8.40;;
21251;SDS011;10784;50.578;17.878;2023-03-04T07:14:47;28.23;;;9.82;;
21251;SDS011;10784;50.578;17.878;2023-03-04T07:17:20;34.70;;;11.60;;
21251;SDS011;10784;50.578;17.878;2023-03-04T07:19:53;27.80;;;8.90;;
21251;SDS011;10784;50.578;17.878;2023-03-04T07:22:26;23.25;;;9.55;;
21251;SDS011;10784;50.578;17.878;2023-03-04T07:24:59;23.60;;;8.48;;
21251;SDS011;10784;50.578;17.878;2023-03-04T07:27:32;21.48;;;8.50;;
21251;SDS011;10784;50.578;17.878;2023-03-04T07:30:06;28.65;;;9.48;;
21251;SDS011;10784;50.578;17.878;2023-03-04T07:32:38;23.73;;;7.95;;
21251;SDS011;10784;50.578;17.878;2023-03-04T07:35:11;27.90;;;8.65;;
21251;SDS011;10784;50.578;17.878;2023-03-04T07:37:44;25.45;;;8.45;;
21251;SDS011;10784;50.578;17.878;2023-03-04T07:40:17;21.65;;;8.77;;
21251;SDS011;10784;50.578;17.878;2023-03-04T07:42:52;24.45;;;8.55;;
21251;SDS011;10784;50.578;17.878;2023-03-04T07:45:26;22.10;;;8.65;;
21251;SDS011;10784;50.578;17.878;2023-03-04T07:47:59;30.88;;;9.18;;
21251;SDS011;10784;50.578;17.878;2023-03-04T07:50:32;25.30;;;8.48;;
21251;SDS011;10784;50.578;17.878;2023-03-04T07:53:05;27.63;;;9.10;;
21251;SDS011;10784;50.578;17.878;2023-03-04T07:55:38;25.77;;;8.68;;
21251;SDS011;10784;50.578;17.878;2023-03-04T07:58:10;21.98;;;7.53;;
21251;SDS011;10784;50.578;17.878;2023-03-04T08:00:43;26.80;;;8.20;;
21251;SDS011;10784;50.578;17.878;2023-03-04T08:03:16;20.40;;;8.50;;
21251;SDS011;10784;50.578;17.878;2023-03-04T08:05:49;19.13;;;8.23;;
21251;SDS011;10784;50.578;17.878;2023-03-04T08:08:22;20.05;;;8.98;;
21251;SDS011;10784;50.578;17.878;2023-03-04T08:10:54;23.45;;;7.70;;
21251;SDS011;10784;50.578;17.878;2023-03-04T08:13:27;22.63;;;8.73;;
21251;SDS011;10784;50.578;17.878;2023-03-04T08:16:01;21.25;;;7.43;;
21251;SDS011;10784;50.578;17.878;2023-03-04T08:18:34;20.30;;;7.95;;
21251;SDS011;10784;50.578;17.878;2023-03-04T08:21:08;19.92;;;7.43;;
21251;SDS011;10784;50.578;17.878;2023-03-04T08:23:41;20.55;;;7.97;;
21251;SDS011;10784;50.578;17.878;2023-03-04T08:26:16;16.85;;;7.63;;
21251;SDS011;10784;50.578;17.878;2023-03-04T08:28:49;23.38;;;7.82;;
21251;SDS011;10784;50.578;17.878;2023-03-04T08:31:23;22.25;;;6.43;;
21251;SDS011;10784;50.578;17.878;2023-03-04T08:33:56;24.50;;;7.72;;
21251;SDS011;10784;50.578;17.878;2023-03-04T08:36:29;17.05;;;6.65;;
21251;SDS011;10784;50.578;17.878;2023-03-04T08:39:02;16.33;;;7.13;;
21251;SDS011;10784;50.578;17.878;2023-03-04T08:41:35;24.60;;;8.65;;
21251;SDS011;10784;50.578;17.878;2023-03-04T08:44:08;21.45;;;9.20;;
21251;SDS011;10784;50.578;17.878;2023-03-04T08:46:41;33.08;;;10.40;;
21251;SDS011;10784;50.578;17.878;2023-03-04T08:49:14;103.55;;;22.95;;
21251;SDS011;10784;50.578;17.878;2023-03-04T08:51:47;55.10;;;18.00;;
21251;SDS011;10784;50.578;17.878;2023-03-04T08:54:19;34.08;;;11.38;;
21251;SDS011;10784;50.578;17.878;2023-03-04T08:56:52;54.10;;;15.90;;
21251;SDS011;10784;50.578;17.878;2023-03-04T08:59:25;44.13;;;14.48;;
21251;SDS011;10784;50.578;17.878;2023-03-04T09:01:58;35.35;;;12.30;;
21251;SDS011;10784;50.578;17.878;2023-03-04T09:04:30;64.85;;;22.20;;
21251;SDS011;10784;50.578;17.878;2023-03-04T09:07:03;35.00;;;12.70;;
21251;SDS011;10784;50.578;17.878;2023-03-04T09:09:37;24.33;;;10.23;;
21251;SDS011;10784;50.578;17.878;2023-03-04T09:12:10;18.48;;;8.43;;
21251;SDS011;10784;50.578;17.878;2023-03-04T09:14:42;26.83;;;9.73;;
21251;SDS011;10784;50.578;17.878;2023-03-04T09:17:15;26.02;;;5.78;;
21251;SDS011;10784;50.578;17.878;2023-03-04T09:19:48;11.27;;;6.05;;
21251;SDS011;10784;50.578;17.878;2023-03-04T09:22:20;19.63;;;8.30;;
21251;SDS011;10784;50.578;17.878;2023-03-04T09:24:53;23.58;;;7.93;;
21251;SDS011;10784;50.578;17.878;2023-03-04T09:27:26;25.55;;;7.10;;
21251;SDS011;10784;50.578;17.878;2023-03-04T09:29:59;15.32;;;6.63;;
21251;SDS011;10784;50.578;17.878;2023-03-04T09:32:32;28.42;;;9.55;;
21251;SDS011;10784;50.578;17.878;2023-03-04T09:35:05;15.10;;;5.65;;
21251;SDS011;10784;50.578;17.878;2023-03-04T09:37:38;27.52;;;6.90;;
21251;SDS011;10784;50.578;17.878;2023-03-04T09:40:16;22.25;;;6.97;;
21251;SDS011;10784;50.578;17.878;2023-03-04T09:42:50;32.72;;;8.38;;
21251;SDS011;10784;50.578;17.878;2023-03-04T09:45:26;30.17;;;6.68;;
21251;SDS011;10784;50.578;17.878;2023-03-04T09:48:01;23.63;;;6.68;;
21251;SDS011;10784;50.578;17.878;2023-03-04T09:50:33;25.80;;;7.47;;
21251;SDS011;10784;50.578;17.878;2023-03-04T09:53:20;18.40;;;8.23;;
21251;SDS011;10784;50.578;17.878;2023-03-04T09:55:54;18.38;;;7.68;;
21251;SDS011;10784;50.578;17.878;2023-03-04T10:01:02;19.83;;;7.05;;
21251;SDS011;10784;50.578;17.878;2023-03-04T10:03:50;18.35;;;6.63;;
21251;SDS011;10784;50.578;17.878;2023-03-04T10:06:24;41.33;;;8.85;;
21251;SDS011;10784;50.578;17.878;2023-03-04T10:09:01;18.88;;;8.10;;
21251;SDS011;10784;50.578;17.878;2023-03-04T10:11:36;24.13;;;10.45;;
21251;SDS011;10784;50.578;17.878;2023-03-04T10:24:56;17.80;;;8.85;;
21251;SDS011;10784;50.578;17.878;2023-03-04T10:27:29;26.15;;;6.20;;
21251;SDS011;10784;50.578;17.878;2023-03-04T10:30:03;16.13;;;5.28;;
21251;SDS011;10784;50.578;17.878;2023-03-04T10:32:38;23.45;;;7.70;;
21251;SDS011;10784;50.578;17.878;2023-03-04T10:35:17;27.98;;;10.02;;
21251;SDS011;10784;50.578;17.878;2023-03-04T10:37:51;25.98;;;6.80;;
21251;SDS011;10784;50.578;17.878;2023-03-04T10:40:24;11.75;;;5.22;;
21251;SDS011;10784;50.578;17.878;2023-03-04T10:42:57;24.35;;;7.75;;
21251;SDS011;10784;50.578;17.878;2023-03-04T10:45:31;14.95;;;7.10;;
21251;SDS011;10784;50.578;17.878;2023-03-04T10:48:16;17.10;;;5.43;;
21251;SDS011;10784;50.578;17.878;2023-03-04T10:50:49;22.40;;;6.55;;
21251;SDS011;10784;50.578;17.878;2023-03-04T10:53:40;27.23;;;6.90;;
21251;SDS011;10784;50.578;17.878;2023-03-04T11:01:58;21.13;;;7.40;;
21251;SDS011;10784;50.578;17.878;2023-03-04T11:04:34;20.88;;;7.68;;
21251;SDS011;10784;50.578;17.878;2023-03-04T11:07:10;16.27;;;5.47;;
21251;SDS011;10784;50.578;17.878;2023-03-04T11:09:43;19.35;;;6.38;;
21251;SDS011;10784;50.578;17.878;2023-03-04T11:12:18;16.17;;;5.72;;
21251;SDS011;10784;50.578;17.878;2023-03-04T11:14:51;10.40;;;4.57;;
21251;SDS011;10784;50.578;17.878;2023-03-04T11:17:28;16.20;;;5.28;;
21251;SDS011;10784;50.578;17.878;2023-03-04T11:22:44;13.02;;;6.32;;
21251;SDS011;10784;50.578;17.878;2023-03-04T11:25:23;26.58;;;9.88;;
21251;SDS011;10784;50.578;17.878;2023-03-04T11:27:57;16.90;;;6.47;;
21251;SDS011;10784;50.578;17.878;2023-03-04T11:30:37;16.50;;;6.50;;
21251;SDS011;10784;50.578;17.878;2023-03-04T11:33:16;13.95;;;5.57;;
21251;SDS011;10784;50.578;17.878;2023-03-04T11:40:59;13.25;;;4.82;;
21251;SDS011;10784;50.578;17.878;2023-03-04T11:43:34;14.45;;;5.35;;
21251;SDS011;10784;50.578;17.878;2023-03-04T11:46:28;16.90;;;4.95;;
21251;SDS011;10784;50.578;17.878;2023-03-04T12:00:26;13.27;;;5.88;;
21251;SDS011;10784;50.578;17.878;2023-03-04T12:03:10;15.18;;;5.25;;
21251;SDS011;10784;50.578;17.878;2023-03-04T12:19:25;14.57;;;4.60;;
21251;SDS011;10784;50.578;17.878;2023-03-04T12:27:38;19.05;;;5.85;;
21251;SDS011;10784;50.578;17.878;2023-03-04T12:30:48;18.15;;;7.28;;
21251;SDS011;10784;50.578;17.878;2023-03-04T12:36:15;19.52;;;7.90;;
21251;SDS011;10784;50.578;17.878;2023-03-04T12:41:40;14.90;;;6.43;;
21251;SDS011;10784;50.578;17.878;2023-03-04T12:44:16;14.52;;;5.95;;
21251;SDS011;10784;50.578;17.878;2023-03-04T12:54:38;25.50;;;10.15;;
21251;SDS011;10784;50.578;17.878;2023-03-04T12:57:22;16.02;;;6.93;;
21251;SDS011;10784;50.578;17.878;2023-03-04T13:10:53;14.40;;;6.50;;
21251;SDS011;10784;50.578;17.878;2023-03-04T13:18:43;18.70;;;5.57;;
21251;SDS011;10784;50.578;17.878;2023-03-04T13:23:53;18.30;;;6.60;;
21251;SDS011;10784;50.578;17.878;2023-03-04T13:26:32;25.00;;;8.32;;
21251;SDS011;10784;50.578;17.878;2023-03-04T13:32:00;27.08;;;8.13;;
21251;SDS011;10784;50.578;17.878;2023-03-04T13:34:47;26.55;;;10.70;;
21251;SDS011;10784;50.578;17.878;2023-03-04T13:37:24;28.65;;;10.05;;
21251;SDS011;10784;50.578;17.878;2023-03-04T13:42:48;22.40;;;7.90;;
21251;SDS011;10784;50.578;17.878;2023-03-04T13:48:00;16.48;;;8.02;;
21251;SDS011;10784;50.578;17.878;2023-03-04T13:50:38;30.65;;;8.55;;
21251;SDS011;10784;50.578;17.878;2023-03-04T13:56:11;21.27;;;8.55;;
21251;SDS011;10784;50.578;17.878;2023-03-04T13:58:51;18.00;;;7.38;;
21251;SDS011;10784;50.578;17.878;2023-03-04T14:01:33;25.70;;;8.70;;
21251;SDS011;10784;50.578;17.878;2023-03-04T14:04:16;15.63;;;6.40;;
21251;SDS011;10784;50.578;17.878;2023-03-04T14:06:50;12.60;;;5.75;;
21251;SDS011;10784;50.578;17.878;2023-03-04T14:09:24;12.43;;;5.38;;
21251;SDS011;10784;50.578;17.878;2023-03-04T14:11:59;22.50;;;8.93;;
21251;SDS011;10784;50.578;17.878;2023-03-04T14:14:47;33.88;;;9.00;;
21251;SDS011;10784;50.578;17.878;2023-03-04T14:17:24;38.55;;;10.05;;
21251;SDS011;10784;50.578;17.878;2023-03-04T14:19:58;25.38;;;8.32;;
21251;SDS011;10784;50.578;17.878;2023-03-04T14:22:37;29.13;;;7.28;;
21251;SDS011;10784;50.578;17.878;2023-03-04T14:27:46;20.65;;;7.60;;
21251;SDS011;10784;50.578;17.878;2023-03-04T14:30:23;22.75;;;8.98;;
21251;SDS011;10784;50.578;17.878;2023-03-04T14:33:16;18.27;;;6.55;;
21251;SDS011;10784;50.578;17.878;2023-03-04T14:35:51;8.70;;;5.78;;
21251;SDS011;10784;50.578;17.878;2023-03-04T14:38:32;27.95;;;9.15;;
21251;SDS011;10784;50.578;17.878;2023-03-04T14:41:15;17.80;;;6.05;;
21251;SDS011;10784;50.578;17.878;2023-03-04T14:44:03;13.05;;;5.53;;
21251;SDS011;10784;50.578;17.878;2023-03-04T14:46:46;16.25;;;7.65;;
21251;SDS011;10784;50.578;17.878;2023-03-04T14:49:37;18.65;;;6.93;;
21251;SDS011;10784;50.578;17.878;2023-03-04T14:52:31;14.85;;;6.05;;
21251;SDS011;10784;50.578;17.878;2023-03-04T14:57:48;11.02;;;5.00;;
21251;SDS011;10784;50.578;17.878;2023-03-04T15:00:24;8.45;;;4.50;;
21251;SDS011;10784;50.578;17.878;2023-03-04T15:05:52;19.33;;;6.55;;
21251;SDS011;10784;50.578;17.878;2023-03-04T15:08:27;24.13;;;7.68;;
21251;SDS011;10784;50.578;17.878;2023-03-04T15:11:02;18.90;;;6.80;;
21251;SDS011;10784;50.578;17.878;2023-03-04T15:13:42;30.73;;;8.25;;
21251;SDS011;10784;50.578;17.878;2023-03-04T15:16:16;30.25;;;9.57;;
21251;SDS011;10784;50.578;17.878;2023-03-04T15:18:54;45.25;;;11.57;;
21251;SDS011;10784;50.578;17.878;2023-03-04T15:21:28;27.95;;;8.60;;
21251;SDS011;10784;50.578;17.878;2023-03-04T15:24:03;26.60;;;8.35;;
21251;SDS011;10784;50.578;17.878;2023-03-04T15:26:39;57.33;;;12.25;;
21251;SDS011;10784;50.578;17.878;2023-03-04T15:29:13;37.63;;;10.55;;
21251;SDS011;10784;50.578;17.878;2023-03-04T15:31:46;50.08;;;13.70;;
21251;SDS011;10784;50.578;17.878;2023-03-04T15:34:23;40.50;;;10.73;;
21251;SDS011;10784;50.578;17.878;2023-03-04T15:36:56;32.45;;;11.00;;
21251;SDS011;10784;50.578;17.878;2023-03-04T15:39:31;33.45;;;14.23;;
21251;SDS011;10784;50.578;17.878;2023-03-04T15:42:04;41.33;;;15.18;;
21251;SDS011;10784;50.578;17.878;2023-03-04T15:44:40;58.28;;;16.77;;
21251;SDS011;10784;50.578;17.878;2023-03-04T15:47:13;44.85;;;12.98;;
21251;SDS011;10784;50.578;17.878;2023-03-04T15:49:46;32.50;;;9.82;;
21251;SDS011;10784;50.578;17.878;2023-03-04T15:52:19;28.25;;;8.45;;
21251;SDS011;10784;50.578;17.878;2023-03-04T15:54:53;24.30;;;8.88;;
21251;SDS011;10784;50.578;17.878;2023-03-04T15:57:25;41.72;;;11.70;;
21251;SDS011;10784;50.578;17.878;2023-03-04T15:59:58;28.00;;;8.00;;
21251;SDS011;10784;50.578;17.878;2023-03-04T16:02:42;36.92;;;10.15;;
21251;SDS011;10784;50.578;17.878;2023-03-04T16:05:15;16.55;;;7.30;;
21251;SDS011;10784;50.578;17.878;2023-03-04T16:07:48;30.60;;;8.88;;
21251;SDS011;10784;50.578;17.878;2023-03-04T16:10:25;47.05;;;14.60;;
21251;SDS011;10784;50.578;17.878;2023-03-04T16:12:59;49.88;;;11.50;;
21251;SDS011;10784;50.578;17.878;2023-03-04T16:15:32;41.42;;;12.27;;
21251;SDS011;10784;50.578;17.878;2023-03-04T16:18:04;54.80;;;13.80;;
21251;SDS011;10784;50.578;17.878;2023-03-04T16:20:40;30.75;;;12.73;;
21251;SDS011;10784;50.578;17.878;2023-03-04T16:23:15;20.80;;;8.15;;
21251;SDS011;10784;50.578;17.878;2023-03-04T16:25:51;66.85;;;17.40;;
21251;SDS011;10784;50.578;17.878;2023-03-04T16:28:25;26.40;;;10.07;;
21251;SDS011;10784;50.578;17.878;2023-03-04T16:30:58;24.80;;;8.90;;
21251;SDS011;10784;50.578;17.878;2023-03-04T16:33:30;56.95;;;17.90;;
21251;SDS011;10784;50.578;17.878;2023-03-04T16:36:08;102.88;;;29.25;;
21251;SDS011;10784;50.578;17.878;2023-03-04T16:38:43;35.00;;;13.90;;
21251;SDS011;10784;50.578;17.878;2023-03-04T16:41:16;37.00;;;13.20;;
21251;SDS011;10784;50.578;17.878;2023-03-04T16:43:51;15.05;;;8.05;;
21251;SDS011;10784;50.578;17.878;2023-03-04T16:46:27;14.68;;;6.05;;
21251;SDS011;10784;50.578;17.878;2023-03-04T16:49:01;18.55;;;6.95;;
21251;SDS011;10784;50.578;17.878;2023-03-04T16:51:35;16.15;;;5.45;;
21251;SDS011;10784;50.578;17.878;2023-03-04T16:54:13;11.05;;;5.97;;
21251;SDS011;10784;50.578;17.878;2023-03-04T16:56:47;17.60;;;7.07;;